createdAt,value
2018-05-17T00:00:48.210Z,11.70
2018-05-17T00:03:15.773Z,11.60
2018-05-17T00:05:43.343Z,11.50
2018-05-17T00:08:10.965Z,11.30
2018-05-17T00:10:39.460Z,11.10
2018-05-17T00:13:07.058Z,11.10
2018-05-17T00:15:34.600Z,11.20
2018-05-17T00:18:02.179Z,11.20
2018-05-17T00:20:29.753Z,11.40
2018-05-17T00:22:57.316Z,11.40
2018-05-17T00:25:24.997Z,11.30
2018-05-17T00:27:53.439Z,11.40
2018-05-17T00:30:20.984Z,11.40
2018-05-17T00:32:48.538Z,11.30
2018-05-17T00:35:16.112Z,11.20
2018-05-17T00:37:43.676Z,11.20
2018-05-17T00:40:11.257Z,11.20
2018-05-17T00:42:39.063Z,11.10
2018-05-17T00:45:06.620Z,11.10
2018-05-17T00:47:34.173Z,11.10
2018-05-17T00:50:02.505Z,11.10
2018-05-17T00:52:30.068Z,11.10
2018-05-17T00:54:57.617Z,10.90
2018-05-17T00:57:25.203Z,10.80
2018-05-17T00:59:52.747Z,10.90
2018-05-17T01:02:20.486Z,10.90
2018-05-17T01:04:48.048Z,10.90
2018-05-17T01:07:15.943Z,10.80
2018-05-17T01:09:43.491Z,10.60
2018-05-17T01:12:11.127Z,10.50
2018-05-17T01:14:38.783Z,10.40
2018-05-17T01:17:06.349Z,10.30
2018-05-17T01:19:34.079Z,10.20
2018-05-17T01:22:01.656Z,10.10
2018-05-17T01:24:29.247Z,10.30
2018-05-17T01:26:56.897Z,10.30
2018-05-17T01:29:24.470Z,10.10
2018-05-17T01:31:52.049Z,10.20
2018-05-17T01:34:19.751Z,10.30
2018-05-17T01:36:59.024Z,10.30
2018-05-17T01:39:26.611Z,10.20
2018-05-17T01:41:54.164Z,10.20
2018-05-17T01:44:21.741Z,10.10
2018-05-17T01:46:49.447Z,10.10
2018-05-17T01:49:16.999Z,10.10
2018-05-17T01:51:44.554Z,10.10
2018-05-17T01:54:12.720Z,9.90
2018-05-17T01:56:40.291Z,9.90
2018-05-17T01:59:07.864Z,9.90
2018-05-17T02:01:35.441Z,9.80
2018-05-17T02:04:03.147Z,9.90
2018-05-17T02:06:30.764Z,6.70
2018-05-17T02:08:58.303Z,9.90
2018-05-17T02:11:25.879Z,9.80
2018-05-17T02:13:53.505Z,9.80
2018-05-17T02:16:22.199Z,9.70
2018-05-17T02:18:49.760Z,9.70
2018-05-17T02:21:17.488Z,9.50
2018-05-17T02:23:45.034Z,9.50
2018-05-17T02:26:13.348Z,9.50
2018-05-17T02:28:40.906Z,9.50
2018-05-17T02:31:08.451Z,9.40
2018-05-17T02:33:36.043Z,9.40
2018-05-17T02:36:03.593Z,9.50
2018-05-17T02:38:31.161Z,9.40
2018-05-17T02:40:58.721Z,9.40
2018-05-17T02:43:26.298Z,9.30
2018-05-17T02:45:53.878Z,9.40
2018-05-17T02:48:21.448Z,9.30
2018-05-17T02:50:49.767Z,9.20
2018-05-17T02:53:17.413Z,9.20
2018-05-17T02:55:44.985Z,9.20
2018-05-17T02:58:12.515Z,9.20
2018-05-17T03:00:40.077Z,9.20
2018-05-17T03:03:07.617Z,9.00
2018-05-17T03:05:35.937Z,9.10
2018-05-17T03:08:03.500Z,9.00
2018-05-17T03:10:31.050Z,9.10
2018-05-17T03:12:58.635Z,9.10
2018-05-17T03:15:26.218Z,9.10
2018-05-17T03:17:53.791Z,9.00
2018-05-17T03:20:21.459Z,9.00
2018-05-17T03:22:49.798Z,8.90
2018-05-17T03:25:17.366Z,9.00
2018-05-17T03:27:45.087Z,9.00
2018-05-17T03:30:12.784Z,8.80
2018-05-17T03:32:40.561Z,8.80
2018-05-17T03:35:08.318Z,8.90
2018-05-17T03:37:36.089Z,8.90
2018-05-17T03:40:03.691Z,8.80
2018-05-17T03:42:31.255Z,8.90
2018-05-17T03:44:58.820Z,8.90
2018-05-17T03:47:26.601Z,8.80
2018-05-17T03:49:54.153Z,8.70
2018-05-17T03:52:21.859Z,8.60
2018-05-17T03:54:49.437Z,8.60
2018-05-17T03:57:17.013Z,8.70
2018-05-17T03:59:44.794Z,8.60
2018-05-17T04:02:25.731Z,8.50
2018-05-17T04:05:05.175Z,8.40
2018-05-17T04:07:32.690Z,8.50
2018-05-17T04:10:00.248Z,8.50
2018-05-17T04:12:27.804Z,8.60
2018-05-17T04:14:55.365Z,8.70
2018-05-17T04:17:23.105Z,8.80
2018-05-17T04:19:50.870Z,8.80
2018-05-17T04:22:18.631Z,8.90
2018-05-17T04:24:46.196Z,8.90
2018-05-17T04:27:13.792Z,8.80
2018-05-17T04:29:41.346Z,8.80
2018-05-17T04:32:08.884Z,8.90
2018-05-17T04:34:36.523Z,8.90
2018-05-17T04:37:04.054Z,8.90
2018-05-17T04:39:32.391Z,9.10
2018-05-17T04:41:59.954Z,9.10
2018-05-17T04:44:27.545Z,9.20
2018-05-17T04:46:55.893Z,9.30
2018-05-17T04:49:23.467Z,9.20
2018-05-17T04:51:51.041Z,9.30
2018-05-17T04:54:18.647Z,9.30
2018-05-17T04:56:46.238Z,9.20
2018-05-17T04:59:13.895Z,9.00
2018-05-17T05:01:41.473Z,9.30
2018-05-17T05:04:09.039Z,9.40
2018-05-17T05:06:36.613Z,9.40
2018-05-17T05:09:04.505Z,9.50
2018-05-17T05:11:32.096Z,9.60
2018-05-17T05:13:59.662Z,9.70
2018-05-17T05:16:27.305Z,9.60
2018-05-17T05:18:54.883Z,9.70
2018-05-17T05:21:22.542Z,9.70
2018-05-17T05:23:50.111Z,9.90
2018-05-17T05:26:17.664Z,9.90
2018-05-17T05:28:45.255Z,9.70
2018-05-17T05:31:13.768Z,9.60
2018-05-17T05:33:41.449Z,9.60
2018-05-17T05:36:09.028Z,9.60
2018-05-17T05:38:36.596Z,9.70
2018-05-17T05:41:04.179Z,9.60
2018-05-17T05:43:31.768Z,9.60
2018-05-17T05:45:59.503Z,9.50
2018-05-17T05:48:27.295Z,9.70
2018-05-17T05:50:54.867Z,9.80
2018-05-17T05:53:22.467Z,9.90
2018-05-17T05:55:50.320Z,9.80
2018-05-17T05:58:17.948Z,9.70
2018-05-17T06:00:45.531Z,9.90
2018-05-17T06:03:13.129Z,9.90
2018-05-17T06:05:41.548Z,9.70
2018-05-17T06:08:09.119Z,9.70
2018-05-17T06:10:36.722Z,9.80
2018-05-17T06:13:05.061Z,9.90
2018-05-17T06:15:32.674Z,10.00
2018-05-17T06:18:01.003Z,9.90
2018-05-17T06:20:28.563Z,9.90
2018-05-17T06:22:56.195Z,9.90
2018-05-17T06:25:23.770Z,10.00
2018-05-17T06:27:51.337Z,10.00
2018-05-17T06:30:19.073Z,10.00
2018-05-17T06:32:46.636Z,10.20
2018-05-17T06:35:14.550Z,10.30
2018-05-17T06:37:42.214Z,10.30
2018-05-17T06:40:11.212Z,10.10
2018-05-17T06:42:38.783Z,10.10
2018-05-17T06:45:07.224Z,10.10
2018-05-17T06:47:34.793Z,10.10
2018-05-17T06:50:02.348Z,10.10
2018-05-17T06:52:30.168Z,10.40
2018-05-17T06:54:57.730Z,10.40
2018-05-17T06:57:25.405Z,10.40
2018-05-17T06:59:53.039Z,10.40
2018-05-17T07:02:21.355Z,10.30
2018-05-17T07:04:49.128Z,10.30
2018-05-17T07:07:16.717Z,10.40
2018-05-17T07:09:44.281Z,10.40
2018-05-17T07:12:11.835Z,10.40
2018-05-17T07:14:39.632Z,10.40
2018-05-17T07:17:07.253Z,10.50
2018-05-17T07:19:34.937Z,10.60
2018-05-17T07:22:02.527Z,10.60
2018-05-17T07:24:30.084Z,10.90
2018-05-17T07:26:57.765Z,11.00
2018-05-17T07:29:26.187Z,11.40
2018-05-17T07:31:53.780Z,11.40
2018-05-17T07:34:21.414Z,11.50
2018-05-17T07:36:49.924Z,11.30
2018-05-17T07:39:17.463Z,11.30
2018-05-17T07:41:45.155Z,11.30
2018-05-17T07:44:12.740Z,11.40
2018-05-17T07:46:40.341Z,11.60
2018-05-17T07:49:07.899Z,11.50
2018-05-17T07:51:35.613Z,11.50
2018-05-17T07:54:03.176Z,11.30
2018-05-17T07:56:30.779Z,11.40
2018-05-17T07:58:58.385Z,11.60
2018-05-17T08:01:25.943Z,11.80
2018-05-17T08:03:53.561Z,12.10
2018-05-17T08:06:21.975Z,12.30
2018-05-17T08:08:49.551Z,12.20
2018-05-17T08:11:17.123Z,12.00
2018-05-17T08:13:44.726Z,12.20
2018-05-17T08:16:12.313Z,12.30
2018-05-17T08:18:39.871Z,12.20
2018-05-17T08:21:07.446Z,12.20
2018-05-17T08:23:34.995Z,12.20
2018-05-17T08:26:02.568Z,12.00
2018-05-17T08:28:30.147Z,12.10
2018-05-17T08:30:57.735Z,12.40
2018-05-17T08:33:25.314Z,12.40
2018-05-17T08:35:52.887Z,12.40
2018-05-17T08:38:20.465Z,12.30
2018-05-17T08:40:48.264Z,12.10
2018-05-17T08:43:15.893Z,12.10
2018-05-17T08:45:43.471Z,12.30
2018-05-17T08:48:11.060Z,12.70
2018-05-17T08:50:39.376Z,12.50
2018-05-17T08:53:06.981Z,12.50
2018-05-17T08:55:34.574Z,12.60
2018-05-17T08:58:02.464Z,12.70
2018-05-17T09:00:30.043Z,12.70
2018-05-17T09:02:57.599Z,12.90
2018-05-17T09:05:25.199Z,12.70
2018-05-17T09:07:52.801Z,12.60
2018-05-17T09:10:20.372Z,13.10
2018-05-17T09:12:47.938Z,13.50
2018-05-17T09:15:15.510Z,13.70
2018-05-17T09:17:43.150Z,13.60
2018-05-17T09:20:10.806Z,13.60
2018-05-17T09:22:38.303Z,13.30
2018-05-17T09:25:05.910Z,13.50
2018-05-17T09:27:33.653Z,12.90
2018-05-17T09:30:02.025Z,13.50
2018-05-17T09:32:29.559Z,13.40
2018-05-17T09:34:57.110Z,13.70
2018-05-17T09:37:24.708Z,13.90
2018-05-17T09:39:53.025Z,14.30
2018-05-17T09:42:20.604Z,14.30
2018-05-17T09:44:48.161Z,14.50
2018-05-17T09:47:15.753Z,14.40
2018-05-17T09:49:44.095Z,14.40
2018-05-17T09:52:11.673Z,14.40
2018-05-17T09:54:39.250Z,14.70
2018-05-17T09:57:06.828Z,15.30
2018-05-17T09:59:34.385Z,15.10
2018-05-17T10:02:01.989Z,15.50
2018-05-17T10:04:29.619Z,15.60
2018-05-17T10:06:57.177Z,15.80
2018-05-17T10:09:25.045Z,15.50
2018-05-17T10:11:52.592Z,15.20
2018-05-17T10:14:20.369Z,15.40
2018-05-17T10:16:47.952Z,16.60
2018-05-17T10:19:16.531Z,17.60
2018-05-17T10:21:44.125Z,17.50
2018-05-17T10:24:11.729Z,17.50
2018-05-17T10:26:39.438Z,18.00
2018-05-17T10:29:07.041Z,18.20
2018-05-17T10:31:34.600Z,17.30
2018-05-17T10:34:02.479Z,18.50
2018-05-17T10:36:30.073Z,19.10
2018-05-17T10:38:57.639Z,19.10
2018-05-17T10:41:25.215Z,18.90
2018-05-17T10:43:52.800Z,18.70
2018-05-17T10:46:20.373Z,18.00
2018-05-17T10:48:47.961Z,17.10
2018-05-17T10:51:15.545Z,17.30
2018-05-17T10:53:43.120Z,17.90
2018-05-17T10:56:10.816Z,18.40
2018-05-17T10:58:38.395Z,18.60
2018-05-17T11:01:05.953Z,19.80
2018-05-17T11:03:33.539Z,20.20
2018-05-17T11:06:01.188Z,20.00
2018-05-17T11:08:28.761Z,20.30
2018-05-17T11:10:57.001Z,21.50
2018-05-17T11:13:24.772Z,21.70
2018-05-17T11:15:52.355Z,21.20
2018-05-17T11:18:19.956Z,21.30
2018-05-17T11:20:47.519Z,20.90
2018-05-17T11:23:15.089Z,20.30
2018-05-17T11:25:42.868Z,20.70
2018-05-17T11:28:10.525Z,20.80
2018-05-17T11:30:38.184Z,21.10
2018-05-17T11:33:05.805Z,21.30
2018-05-17T11:35:33.379Z,22.00
2018-05-17T11:38:01.163Z,21.70
2018-05-17T11:40:28.748Z,21.40
2018-05-17T11:42:56.335Z,21.60
2018-05-17T11:45:23.920Z,21.80
2018-05-17T11:47:51.486Z,21.60
2018-05-17T11:50:19.230Z,21.80
2018-05-17T11:52:46.829Z,22.60
2018-05-17T11:55:14.432Z,24.10
2018-05-17T11:57:42.283Z,24.40
2018-05-17T12:00:09.842Z,24.80
2018-05-17T12:02:37.507Z,25.00
2018-05-17T12:05:04.983Z,25.50
2018-05-17T12:07:32.612Z,25.30
2018-05-17T12:10:00.312Z,25.00
2018-05-17T12:12:28.783Z,23.80
2018-05-17T12:14:56.380Z,23.80
2018-05-17T12:17:23.952Z,25.50
2018-05-17T12:19:51.564Z,24.90
2018-05-17T12:22:19.136Z,25.90
2018-05-17T12:24:46.700Z,27.10
2018-05-17T12:27:15.064Z,26.80
2018-05-17T12:29:42.898Z,26.80
2018-05-17T12:32:10.459Z,26.90
2018-05-17T12:34:38.044Z,27.30
2018-05-17T12:37:05.663Z,26.90
2018-05-17T12:39:33.212Z,26.30
2018-05-17T12:42:00.829Z,26.60
2018-05-17T12:44:28.403Z,27.30
2018-05-17T12:46:56.760Z,27.00
2018-05-17T12:49:24.521Z,26.90
2018-05-17T12:51:52.352Z,26.30
2018-05-17T12:54:20.204Z,26.30
2018-05-17T12:56:47.875Z,27.70
2018-05-17T12:59:15.368Z,28.40
2018-05-17T13:01:43.130Z,27.50
2018-05-17T13:04:10.709Z,28.70
2018-05-17T13:06:39.126Z,27.30
2018-05-17T13:09:06.690Z,27.30
2018-05-17T13:11:34.273Z,26.40
2018-05-17T13:14:01.885Z,28.50
2018-05-17T13:16:29.450Z,28.80
2018-05-17T13:18:57.474Z,28.50
2018-05-17T13:21:25.073Z,26.60
2018-05-17T13:23:52.756Z,27.40
2018-05-17T13:26:20.409Z,29.10
2018-05-17T13:28:48.146Z,29.30
2018-05-17T13:31:16.520Z,29.10
2018-05-17T13:33:44.227Z,29.10
2018-05-17T13:36:11.832Z,30.40
2018-05-17T13:38:39.583Z,29.50
2018-05-17T13:41:07.196Z,30.30
2018-05-17T13:43:35.842Z,27.30
2018-05-17T13:46:03.435Z,27.50
2018-05-17T13:48:31.012Z,27.70
2018-05-17T13:50:58.630Z,27.70
2018-05-17T13:53:26.421Z,27.60
2018-05-17T13:55:54.000Z,26.60
2018-05-17T13:58:21.648Z,27.10
2018-05-17T14:00:49.220Z,29.30
2018-05-17T14:03:16.978Z,30.70
2018-05-17T14:05:44.592Z,29.70
2018-05-17T14:08:12.251Z,28.00
2018-05-17T14:10:39.813Z,30.30
2018-05-17T14:13:07.450Z,29.50
2018-05-17T14:15:35.092Z,28.40
2018-05-17T14:18:02.662Z,30.40
2018-05-17T14:20:30.447Z,31.80
2018-05-17T14:22:58.217Z,32.40
2018-05-17T14:25:25.875Z,32.20
2018-05-17T14:27:53.490Z,32.50
2018-05-17T14:30:21.194Z,31.40
2018-05-17T14:32:48.880Z,31.70
2018-05-17T14:35:17.422Z,30.80
2018-05-17T14:37:45.030Z,30.80
2018-05-17T14:40:13.641Z,30.70
2018-05-17T14:42:41.259Z,30.70
2018-05-17T14:45:09.929Z,30.60
2018-05-17T14:47:37.515Z,32.10
2018-05-17T14:50:05.868Z,33.30
2018-05-17T14:52:34.344Z,33.00
2018-05-17T14:55:01.912Z,33.00
2018-05-17T14:57:29.505Z,34.20
2018-05-17T14:59:57.128Z,34.10
2018-05-17T15:02:24.695Z,33.40
2018-05-17T15:04:52.447Z,32.30
2018-05-17T15:07:20.073Z,30.70
2018-05-17T15:09:47.777Z,30.20
2018-05-17T15:12:16.166Z,30.50
2018-05-17T15:14:43.777Z,30.50
2018-05-17T15:17:11.348Z,30.90
2018-05-17T15:19:38.945Z,29.90
2018-05-17T15:22:06.602Z,30.00
2018-05-17T15:24:34.251Z,29.50
2018-05-17T15:27:01.758Z,30.50
2018-05-17T15:29:29.374Z,30.40
2018-05-17T15:31:56.989Z,28.90
2018-05-17T15:34:24.589Z,28.60
2018-05-17T15:36:52.143Z,31.40
2018-05-17T15:39:19.777Z,31.60
2018-05-17T15:41:47.367Z,30.80
2018-05-17T15:44:14.953Z,29.70
2018-05-17T15:46:43.294Z,31.10
2018-05-17T15:49:10.937Z,31.10
2018-05-17T15:51:38.526Z,30.10
2018-05-17T15:54:06.109Z,29.60
2018-05-17T15:56:33.742Z,29.60
2018-05-17T15:59:01.609Z,27.90
2018-05-17T16:01:29.217Z,26.60
2018-05-17T16:03:56.857Z,25.90
2018-05-17T16:06:24.533Z,23.90
2018-05-17T16:08:52.995Z,21.40
2018-05-17T16:11:20.682Z,21.30
2018-05-17T16:13:49.214Z,20.60
2018-05-17T16:16:16.827Z,20.60
2018-05-17T16:18:44.440Z,20.10
2018-05-17T16:21:12.074Z,19.90
2018-05-17T16:23:39.726Z,19.60
2018-05-17T16:26:07.318Z,19.70
2018-05-17T16:28:34.954Z,19.60
2018-05-17T16:31:02.516Z,19.70
2018-05-17T16:33:30.151Z,19.60
2018-05-17T16:35:57.733Z,19.80
2018-05-17T16:38:25.348Z,20.20
2018-05-17T16:40:53.867Z,20.40
2018-05-17T16:43:21.431Z,20.40
2018-05-17T16:45:49.024Z,20.00
2018-05-17T16:48:16.699Z,19.60
2018-05-17T16:50:45.028Z,19.40
2018-05-17T16:53:12.857Z,19.30
2018-05-17T16:55:40.451Z,18.90
2018-05-17T16:58:08.038Z,18.70
2018-05-17T17:00:35.666Z,18.40
2018-05-17T17:03:03.257Z,18.70
2018-05-17T17:05:30.931Z,18.50
2018-05-17T17:07:58.536Z,18.10
2018-05-17T17:10:26.988Z,18.00
2018-05-17T17:12:54.663Z,17.90
2018-05-17T17:15:23.203Z,17.80
2018-05-17T17:17:50.849Z,17.80
2018-05-17T17:20:18.416Z,17.50
2018-05-17T17:22:46.057Z,17.30
2018-05-17T17:25:13.819Z,17.30
2018-05-17T17:27:42.101Z,17.00
2018-05-17T17:30:09.748Z,17.00
2018-05-17T17:32:37.320Z,17.00
2018-05-17T17:35:04.946Z,16.60
2018-05-17T17:37:32.507Z,16.50
2018-05-17T17:40:00.929Z,16.40
2018-05-17T17:42:28.761Z,16.30
2018-05-17T17:44:56.452Z,16.30
2018-05-17T17:47:24.051Z,16.20
2018-05-17T17:49:51.747Z,16.20
2018-05-17T17:52:19.405Z,16.20
2018-05-17T17:54:47.163Z,16.10
2018-05-17T17:57:15.512Z,16.30
2018-05-17T17:59:43.067Z,16.30
2018-05-17T18:02:10.686Z,16.10
2018-05-17T18:04:38.358Z,15.70
2018-05-17T18:07:06.010Z,15.60
2018-05-17T18:09:33.637Z,15.50
2018-05-17T18:12:01.224Z,15.70
2018-05-17T18:14:28.846Z,15.50
2018-05-17T18:16:56.443Z,15.40
2018-05-17T18:19:24.329Z,15.40
2018-05-17T18:21:51.889Z,15.30
2018-05-17T18:24:19.527Z,15.30
2018-05-17T18:26:47.196Z,15.20
2018-05-17T18:29:14.842Z,15.10
2018-05-17T18:31:43.306Z,14.80
2018-05-17T18:34:11.733Z,14.50
2018-05-17T18:36:39.550Z,14.50
2018-05-17T18:39:08.175Z,14.30
2018-05-17T18:41:35.838Z,14.30
2018-05-17T18:44:03.446Z,14.20
2018-05-17T18:46:31.039Z,14.10
2018-05-17T18:48:58.611Z,14.10
2018-05-17T18:51:26.426Z,14.00
2018-05-17T18:53:54.019Z,13.80
2018-05-17T18:56:21.657Z,13.70
2018-05-17T18:58:49.253Z,13.50
2018-05-17T19:01:17.590Z,13.40
2018-05-17T19:03:45.658Z,13.40
2018-05-17T19:06:13.324Z,13.20
2018-05-17T19:08:40.984Z,13.10
2018-05-17T19:11:08.569Z,13.00
2018-05-17T19:13:36.292Z,12.90
2018-05-17T19:16:03.903Z,12.80
2018-05-17T19:18:31.641Z,12.80
2018-05-17T19:20:59.269Z,12.70
2018-05-17T19:23:26.997Z,12.60
2018-05-17T19:25:54.646Z,12.60
2018-05-17T19:28:22.224Z,12.50
2018-05-17T19:30:50.045Z,12.50
2018-05-17T19:33:18.736Z,12.30
2018-05-17T19:35:47.380Z,12.30
2018-05-17T19:38:14.966Z,12.20
2018-05-17T19:40:42.587Z,12.30
2018-05-17T19:43:10.237Z,12.30
2018-05-17T19:45:37.894Z,12.30
2018-05-17T19:48:05.569Z,12.20
2018-05-17T19:50:33.182Z,12.30
2018-05-17T19:53:01.659Z,12.00
2018-05-17T19:55:29.188Z,12.00
2018-05-17T19:57:57.053Z,11.90
2018-05-17T20:00:24.662Z,12.00
2018-05-17T20:02:53.020Z,11.90
2018-05-17T20:05:20.639Z,11.90
2018-05-17T20:07:48.315Z,11.80
2018-05-17T20:10:15.924Z,11.80
2018-05-17T20:12:44.368Z,11.80
2018-05-17T20:15:12.051Z,11.70
2018-05-17T20:17:40.456Z,11.60
2018-05-17T20:20:08.105Z,11.60
2018-05-17T20:22:35.680Z,11.50
2018-05-17T20:25:03.242Z,11.50
2018-05-17T20:27:30.939Z,11.50
2018-05-17T20:29:58.572Z,11.50
2018-05-17T20:32:26.332Z,11.50
2018-05-17T20:34:53.977Z,11.60
2018-05-17T20:37:21.740Z,11.50
2018-05-17T20:39:49.321Z,11.50
2018-05-17T20:42:16.959Z,11.50
2018-05-17T20:44:44.545Z,11.40
2018-05-17T20:47:12.127Z,11.50
2018-05-17T20:49:39.815Z,11.50
2018-05-17T20:52:07.295Z,11.60
2018-05-17T20:54:34.857Z,11.40
2018-05-17T20:57:02.627Z,11.30
2018-05-17T20:59:30.221Z,11.40
2018-05-17T21:01:57.829Z,11.40
2018-05-17T21:04:25.465Z,11.50
2018-05-17T21:06:53.050Z,11.40
2018-05-17T21:09:20.863Z,11.30
2018-05-17T21:11:48.431Z,11.30
2018-05-17T21:14:16.041Z,11.40
2018-05-17T21:16:44.669Z,11.60
2018-05-17T21:19:12.272Z,11.60
2018-05-17T21:21:39.941Z,11.70
2018-05-17T21:24:07.534Z,11.60
2018-05-17T21:26:35.126Z,11.70
2018-05-17T21:29:02.761Z,11.70
2018-05-17T21:31:30.362Z,11.60
2018-05-17T21:33:58.760Z,11.50
2018-05-17T21:36:26.308Z,11.50
2018-05-17T21:38:53.879Z,11.50
2018-05-17T21:41:22.320Z,11.60
2018-05-17T21:43:49.790Z,11.50
2018-05-17T21:46:17.353Z,11.30
2018-05-17T21:48:44.924Z,11.20
2018-05-17T21:51:12.492Z,11.30
2018-05-17T21:53:40.194Z,11.40
2018-05-17T21:56:07.740Z,11.40
2018-05-17T21:58:35.340Z,11.50
2018-05-17T22:01:02.901Z,11.60
2018-05-17T22:03:30.499Z,11.50
2018-05-17T22:05:58.060Z,11.50
2018-05-17T22:08:26.438Z,11.40
2018-05-17T22:10:54.029Z,11.30
2018-05-17T22:13:21.656Z,11.30
2018-05-17T22:15:50.079Z,11.50
2018-05-17T22:18:17.651Z,11.50
2018-05-17T22:20:46.205Z,11.50
2018-05-17T22:23:13.756Z,11.40
2018-05-17T22:25:41.377Z,11.30
2018-05-17T22:28:09.027Z,11.20
2018-05-17T22:30:36.605Z,11.40
2018-05-17T22:33:04.423Z,11.40
2018-05-17T22:35:32.998Z,11.50
2018-05-17T22:38:00.734Z,11.50
2018-05-17T22:40:29.082Z,11.50
2018-05-17T22:42:57.409Z,11.50
2018-05-17T22:45:24.980Z,11.50
2018-05-17T22:47:52.711Z,11.40
2018-05-17T22:50:20.588Z,11.20
2018-05-17T22:52:48.187Z,11.10
2018-05-17T22:55:15.765Z,11.10
2018-05-17T22:57:55.330Z,11.00
2018-05-17T23:00:22.949Z,11.10
2018-05-17T23:02:50.511Z,11.20
2018-05-17T23:05:18.085Z,11.20
2018-05-17T23:07:45.677Z,11.10
2018-05-17T23:10:13.243Z,10.90
2018-05-17T23:12:41.648Z,10.90
2018-05-17T23:15:09.215Z,10.80
2018-05-17T23:17:36.967Z,10.90
2018-05-17T23:20:04.538Z,10.90
2018-05-17T23:22:36.876Z,10.80
2018-05-17T23:25:05.204Z,10.80
2018-05-17T23:27:32.764Z,10.80
2018-05-17T23:30:00.332Z,10.80
2018-05-17T23:32:27.905Z,10.70
2018-05-17T23:34:55.475Z,10.80
2018-05-17T23:37:23.062Z,10.70
2018-05-17T23:39:50.653Z,10.90
2018-05-17T23:42:18.231Z,10.90
2018-05-17T23:44:45.833Z,10.80
2018-05-17T23:47:13.372Z,10.80
2018-05-17T23:49:40.968Z,10.60
2018-05-17T23:52:08.504Z,10.70
2018-05-17T23:54:36.089Z,10.60
2018-05-17T23:57:03.652Z,10.60
2018-05-17T23:59:31.260Z,10.60
